Leopoldo de Bulhoes, Brazil
Current Conditions -  °F | °C
As of 7:00 PM on Friday 19 Dec 2014 (Local Time) from SBAN Reporting Station
Broken Clouds Broken Clouds  
Wind Chill: 73°   Ceiling: 10000
Heat Index: 73°   Visibility: 6mi
Dew Point: 64°   Wind: 0mph
Humidity: 73%   Direction: NA
Pressure: 29.94"   Gusts: NA
Location:  16.62°S, 48.74°W
Report Text: SBAN 192100Z 00000KT 9999 SCT025 FEW030TCU BKN100 23/18 Q1014
Loading
Personal Weather Stations






























Interactive Weather Map New forecast layout! Learn more

10-Day Weather Forecast

Advertisements
Track Severe Weather on mobile